sensor_id;sensor_type;location;lat;lon;timestamp;P1;durP1;ratioP1;P2;durP2;ratioP2
49450;SDS011;35336;48.400;10.886;2023-05-17T00:00:10;9.27;;;1.85;;
49450;SDS011;35336;48.400;10.886;2023-05-17T00:00:25;8.70;;;2.00;;
49450;SDS011;35336;48.400;10.886;2023-05-17T00:00:41;7.37;;;2.00;;
49450;SDS011;35336;48.400;10.886;2023-05-17T00:00:56;8.43;;;2.17;;
49450;SDS011;35336;48.400;10.886;2023-05-17T00:01:11;8.23;;;2.30;;
49450;SDS011;35336;48.400;10.886;2023-05-17T00:01:27;13.17;;;2.47;;
49450;SDS011;35336;48.400;10.886;2023-05-17T00:01:42;11.63;;;2.17;;
49450;SDS011;35336;48.400;10.886;2023-05-17T00:01:57;5.57;;;1.67;;
49450;SDS011;35336;48.400;10.886;2023-05-17T00:02:13;6.33;;;1.77;;
49450;SDS011;35336;48.400;10.886;2023-05-17T00:02:28;7.73;;;1.80;;
49450;SDS011;35336;48.400;10.886;2023-05-17T00:02:43;7.37;;;1.80;;
49450;SDS011;35336;48.400;10.886;2023-05-17T00:02:58;4.95;;;1.73;;
49450;SDS011;35336;48.400;10.886;2023-05-17T00:03:14;5.73;;;1.87;;
49450;SDS011;35336;48.400;10.886;2023-05-17T00:03:29;6.10;;;1.90;;
49450;SDS011;35336;48.400;10.886;2023-05-17T00:03:44;6.43;;;1.90;;
49450;SDS011;35336;48.400;10.886;2023-05-17T00:04:00;8.60;;;1.87;;
49450;SDS011;35336;48.400;10.886;2023-05-17T00:04:15;8.10;;;1.60;;
49450;SDS011;35336;48.400;10.886;2023-05-17T00:04:30;8.15;;;1.85;;
49450;SDS011;35336;48.400;10.886;2023-05-17T00:04:45;9.03;;;2.10;;
49450;SDS011;35336;48.400;10.886;2023-05-17T00:05:01;7.43;;;2.03;;
49450;SDS011;35336;48.400;10.886;2023-05-17T00:05:17;6.88;;;2.13;;
49450;SDS011;35336;48.400;10.886;2023-05-17T00:05:32;5.63;;;1.93;;
49450;SDS011;35336;48.400;10.886;2023-05-17T00:05:47;4.35;;;1.90;;
49450;SDS011;35336;48.400;10.886;2023-05-17T00:06:03;5.10;;;1.97;;
49450;SDS011;35336;48.400;10.886;2023-05-17T00:06:18;6.45;;;1.95;;
49450;SDS011;35336;48.400;10.886;2023-05-17T00:06:34;7.63;;;1.83;;
49450;SDS011;35336;48.400;10.886;2023-05-17T00:06:49;8.55;;;2.13;;
49450;SDS011;35336;48.400;10.886;2023-05-17T00:07:04;10.10;;;2.47;;
49450;SDS011;35336;48.400;10.886;2023-05-17T00:07:20;9.10;;;2.10;;
49450;SDS011;35336;48.400;10.886;2023-05-17T00:07:35;6.67;;;1.73;;
49450;SDS011;35336;48.400;10.886;2023-05-17T00:07:50;6.65;;;2.33;;
49450;SDS011;35336;48.400;10.886;2023-05-17T00:08:05;8.77;;;2.47;;
49450;SDS011;35336;48.400;10.886;2023-05-17T00:08:21;7.70;;;1.83;;
49450;SDS011;35336;48.400;10.886;2023-05-17T00:08:36;7.77;;;2.00;;
49450;SDS011;35336;48.400;10.886;2023-05-17T00:08:51;8.10;;;1.98;;
49450;SDS011;35336;48.400;10.886;2023-05-17T00:09:07;6.53;;;1.70;;
49450;SDS011;35336;48.400;10.886;2023-05-17T00:09:22;6.30;;;1.67;;
49450;SDS011;35336;48.400;10.886;2023-05-17T00:09:38;4.77;;;1.70;;
49450;SDS011;35336;48.400;10.886;2023-05-17T00:09:53;4.53;;;1.70;;
49450;SDS011;35336;48.400;10.886;2023-05-17T00:10:08;6.68;;;1.77;;
49450;SDS011;35336;48.400;10.886;2023-05-17T00:10:24;6.30;;;1.93;;
49450;SDS011;35336;48.400;10.886;2023-05-17T00:10:39;5.63;;;1.90;;
49450;SDS011;35336;48.400;10.886;2023-05-17T00:10:54;7.50;;;1.97;;
49450;SDS011;35336;48.400;10.886;2023-05-17T00:11:10;6.27;;;1.77;;
49450;SDS011;35336;48.400;10.886;2023-05-17T00:11:25;4.82;;;1.75;;
49450;SDS011;35336;48.400;10.886;2023-05-17T00:11:41;7.20;;;1.90;;
49450;SDS011;35336;48.400;10.886;2023-05-17T00:11:56;8.32;;;1.77;;
49450;SDS011;35336;48.400;10.886;2023-05-17T00:12:11;6.27;;;1.60;;
49450;SDS011;35336;48.400;10.886;2023-05-17T00:12:27;6.23;;;1.70;;
49450;SDS011;35336;48.400;10.886;2023-05-17T00:12:42;9.23;;;2.35;;
49450;SDS011;35336;48.400;10.886;2023-05-17T00:12:57;10.07;;;2.07;;
49450;SDS011;35336;48.400;10.886;2023-05-17T00:13:13;8.67;;;1.83;;
49450;SDS011;35336;48.400;10.886;2023-05-17T00:13:28;6.30;;;1.80;;
49450;SDS011;35336;48.400;10.886;2023-05-17T00:13:43;6.97;;;1.50;;
49450;SDS011;35336;48.400;10.886;2023-05-17T00:13:59;7.77;;;1.60;;
49450;SDS011;35336;48.400;10.886;2023-05-17T00:14:14;6.72;;;1.63;;
49450;SDS011;35336;48.400;10.886;2023-05-17T00:14:29;5.67;;;1.70;;
49450;SDS011;35336;48.400;10.886;2023-05-17T00:14:45;7.80;;;1.70;;
49450;SDS011;35336;48.400;10.886;2023-05-17T00:15:00;7.30;;;1.58;;
49450;SDS011;35336;48.400;10.886;2023-05-17T00:15:15;6.43;;;1.73;;
49450;SDS011;35336;48.400;10.886;2023-05-17T00:15:31;6.30;;;1.50;;
49450;SDS011;35336;48.400;10.886;2023-05-17T00:15:46;7.47;;;1.65;;
49450;SDS011;35336;48.400;10.886;2023-05-17T00:16:01;11.37;;;2.20;;
49450;SDS011;35336;48.400;10.886;2023-05-17T00:16:17;11.43;;;2.13;;
49450;SDS011;35336;48.400;10.886;2023-05-17T00:16:32;7.45;;;2.03;;
49450;SDS011;35336;48.400;10.886;2023-05-17T00:16:47;7.53;;;2.17;;
49450;SDS011;35336;48.400;10.886;2023-05-17T00:17:02;8.47;;;1.87;;
49450;SDS011;35336;48.400;10.886;2023-05-17T00:17:18;7.00;;;1.63;;
49450;SDS011;35336;48.400;10.886;2023-05-17T00:17:33;6.83;;;1.70;;
49450;SDS011;35336;48.400;10.886;2023-05-17T00:17:49;13.23;;;1.60;;
49450;SDS011;35336;48.400;10.886;2023-05-17T00:18:04;12.18;;;1.55;;
49450;SDS011;35336;48.400;10.886;2023-05-17T00:18:19;4.80;;;1.63;;
49450;SDS011;35336;48.400;10.886;2023-05-17T00:18:34;5.00;;;1.70;;
49450;SDS011;35336;48.400;10.886;2023-05-17T00:18:50;5.50;;;1.70;;
49450;SDS011;35336;48.400;10.886;2023-05-17T00:19:05;7.13;;;1.63;;
49450;SDS011;35336;48.400;10.886;2023-05-17T00:19:20;6.53;;;1.67;;
49450;SDS011;35336;48.400;10.886;2023-05-17T00:19:35;5.33;;;1.47;;
49450;SDS011;35336;48.400;10.886;2023-05-17T00:19:51;8.40;;;1.73;;
49450;SDS011;35336;48.400;10.886;2023-05-17T00:20:06;8.93;;;1.93;;
49450;SDS011;35336;48.400;10.886;2023-05-17T00:20:22;7.20;;;1.60;;
49450;SDS011;35336;48.400;10.886;2023-05-17T00:20:37;7.10;;;1.70;;
49450;SDS011;35336;48.400;10.886;2023-05-17T00:20:52;6.60;;;1.73;;
49450;SDS011;35336;48.400;10.886;2023-05-17T00:21:08;8.35;;;1.80;;
49450;SDS011;35336;48.400;10.886;2023-05-17T00:21:23;7.17;;;1.73;;
49450;SDS011;35336;48.400;10.886;2023-05-17T00:21:38;5.27;;;1.87;;
49450;SDS011;35336;48.400;10.886;2023-05-17T00:21:53;5.40;;;2.10;;
49450;SDS011;35336;48.400;10.886;2023-05-17T00:22:09;6.57;;;1.63;;
49450;SDS011;35336;48.400;10.886;2023-05-17T00:22:24;8.07;;;1.40;;
49450;SDS011;35336;48.400;10.886;2023-05-17T00:22:39;8.90;;;1.80;;
49450;SDS011;35336;48.400;10.886;2023-05-17T00:22:55;9.65;;;1.88;;
49450;SDS011;35336;48.400;10.886;2023-05-17T00:23:10;8.63;;;1.97;;
49450;SDS011;35336;48.400;10.886;2023-05-17T00:23:25;8.93;;;2.10;;
49450;SDS011;35336;48.400;10.886;2023-05-17T00:23:41;11.60;;;2.13;;
49450;SDS011;35336;48.400;10.886;2023-05-17T00:23:57;9.25;;;1.83;;
49450;SDS011;35336;48.400;10.886;2023-05-17T00:24:13;6.30;;;1.70;;
49450;SDS011;35336;48.400;10.886;2023-05-17T00:24:28;5.63;;;1.70;;
49450;SDS011;35336;48.400;10.886;2023-05-17T00:24:43;7.07;;;1.80;;
49450;SDS011;35336;48.400;10.886;2023-05-17T00:24:58;9.00;;;1.97;;
49450;SDS011;35336;48.400;10.886;2023-05-17T00:25:14;8.80;;;1.75;;
49450;SDS011;35336;48.400;10.886;2023-05-17T00:25:29;8.90;;;1.70;;
49450;SDS011;35336;48.400;10.886;2023-05-17T00:25:44;6.07;;;1.43;;
49450;SDS011;35336;48.400;10.886;2023-05-17T00:26:00;4.85;;;1.30;;
49450;SDS011;35336;48.400;10.886;2023-05-17T00:26:15;5.93;;;1.60;;
49450;SDS011;35336;48.400;10.886;2023-05-17T00:26:30;5.68;;;1.77;;
49450;SDS011;35336;48.400;10.886;2023-05-17T00:26:46;6.47;;;2.00;;
49450;SDS011;35336;48.400;10.886;2023-05-17T00:27:01;5.73;;;1.73;;
49450;SDS011;35336;48.400;10.886;2023-05-17T00:27:16;5.43;;;1.67;;
49450;SDS011;35336;48.400;10.886;2023-05-17T00:27:32;6.95;;;2.10;;
49450;SDS011;35336;48.400;10.886;2023-05-17T00:27:47;6.03;;;1.77;;
49450;SDS011;35336;48.400;10.886;2023-05-17T00:28:02;5.57;;;1.40;;
49450;SDS011;35336;48.400;10.886;2023-05-17T00:28:18;9.02;;;1.52;;
49450;SDS011;35336;48.400;10.886;2023-05-17T00:28:33;8.97;;;1.53;;
49450;SDS011;35336;48.400;10.886;2023-05-17T00:28:48;6.20;;;1.60;;
49450;SDS011;35336;48.400;10.886;2023-05-17T00:29:04;6.97;;;1.83;;
49450;SDS011;35336;48.400;10.886;2023-05-17T00:29:19;6.33;;;1.73;;
49450;SDS011;35336;48.400;10.886;2023-05-17T00:29:34;8.17;;;1.60;;
49450;SDS011;35336;48.400;10.886;2023-05-17T00:29:50;8.68;;;1.80;;
49450;SDS011;35336;48.400;10.886;2023-05-17T00:30:05;7.43;;;1.70;;
49450;SDS011;35336;48.400;10.886;2023-05-17T00:30:21;6.97;;;1.42;;
49450;SDS011;35336;48.400;10.886;2023-05-17T00:30:36;7.23;;;1.50;;
49450;SDS011;35336;48.400;10.886;2023-05-17T00:30:51;8.18;;;2.20;;
49450;SDS011;35336;48.400;10.886;2023-05-17T00:31:07;8.27;;;2.40;;
49450;SDS011;35336;48.400;10.886;2023-05-17T00:31:22;6.90;;;1.73;;
49450;SDS011;35336;48.400;10.886;2023-05-17T00:31:37;6.93;;;1.90;;
49450;SDS011;35336;48.400;10.886;2023-05-17T00:31:53;8.23;;;1.83;;
49450;SDS011;35336;48.400;10.886;2023-05-17T00:32:08;5.87;;;1.53;;
49450;SDS011;35336;48.400;10.886;2023-05-17T00:32:23;5.17;;;1.33;;
49450;SDS011;35336;48.400;10.886;2023-05-17T00:32:38;5.78;;;1.40;;
49450;SDS011;35336;48.400;10.886;2023-05-17T00:32:54;6.03;;;1.47;;
49450;SDS011;35336;48.400;10.886;2023-05-17T00:33:09;6.57;;;1.70;;
49450;SDS011;35336;48.400;10.886;2023-05-17T00:33:24;5.87;;;1.60;;
49450;SDS011;35336;48.400;10.886;2023-05-17T00:33:39;6.13;;;1.35;;
49450;SDS011;35336;48.400;10.886;2023-05-17T00:33:55;6.97;;;1.40;;
49450;SDS011;35336;48.400;10.886;2023-05-17T00:34:10;7.70;;;1.40;;
49450;SDS011;35336;48.400;10.886;2023-05-17T00:34:25;6.40;;;1.38;;
49450;SDS011;35336;48.400;10.886;2023-05-17T00:34:40;5.97;;;1.67;;
49450;SDS011;35336;48.400;10.886;2023-05-17T00:34:56;8.93;;;1.73;;
49450;SDS011;35336;48.400;10.886;2023-05-17T00:35:11;9.17;;;1.60;;
49450;SDS011;35336;48.400;10.886;2023-05-17T00:35:26;8.65;;;1.77;;
49450;SDS011;35336;48.400;10.886;2023-05-17T00:35:42;9.17;;;1.83;;
49450;SDS011;35336;48.400;10.886;2023-05-17T00:35:57;9.30;;;1.63;;
49450;SDS011;35336;48.400;10.886;2023-05-17T00:36:12;8.13;;;1.55;;
49450;SDS011;35336;48.400;10.886;2023-05-17T00:36:27;4.97;;;1.60;;
49450;SDS011;35336;48.400;10.886;2023-05-17T00:36:43;5.47;;;1.73;;
49450;SDS011;35336;48.400;10.886;2023-05-17T00:36:58;8.77;;;1.70;;
49450;SDS011;35336;48.400;10.886;2023-05-17T00:37:13;8.32;;;1.40;;
49450;SDS011;35336;48.400;10.886;2023-05-17T00:37:28;8.03;;;1.53;;
49450;SDS011;35336;48.400;10.886;2023-05-17T00:37:44;9.60;;;1.73;;
49450;SDS011;35336;48.400;10.886;2023-05-17T00:37:59;7.30;;;1.65;;
49450;SDS011;35336;48.400;10.886;2023-05-17T00:38:14;5.77;;;1.50;;
49450;SDS011;35336;48.400;10.886;2023-05-17T00:38:30;6.07;;;1.30;;
49450;SDS011;35336;48.400;10.886;2023-05-17T00:38:45;9.03;;;1.53;;
49450;SDS011;35336;48.400;10.886;2023-05-17T00:39:00;12.30;;;1.70;;
49450;SDS011;35336;48.400;10.886;2023-05-17T00:39:16;8.47;;;1.70;;
49450;SDS011;35336;48.400;10.886;2023-05-17T00:39:31;5.53;;;1.50;;
49450;SDS011;35336;48.400;10.886;2023-05-17T00:39:46;4.63;;;1.35;;
49450;SDS011;35336;48.400;10.886;2023-05-17T00:40:02;5.33;;;1.50;;
49450;SDS011;35336;48.400;10.886;2023-05-17T00:40:18;7.43;;;1.42;;
49450;SDS011;35336;48.400;10.886;2023-05-17T00:40:34;9.57;;;1.60;;
49450;SDS011;35336;48.400;10.886;2023-05-17T00:40:49;6.97;;;1.40;;
49450;SDS011;35336;48.400;10.886;2023-05-17T00:41:04;4.77;;;1.20;;
49450;SDS011;35336;48.400;10.886;2023-05-17T00:41:20;6.27;;;1.67;;
49450;SDS011;35336;48.400;10.886;2023-05-17T00:41:35;7.45;;;1.55;;
49450;SDS011;35336;48.400;10.886;2023-05-17T00:41:50;8.40;;;1.60;;
49450;SDS011;35336;48.400;10.886;2023-05-17T00:42:06;9.40;;;2.03;;
49450;SDS011;35336;48.400;10.886;2023-05-17T00:42:21;11.25;;;1.75;;
49450;SDS011;35336;48.400;10.886;2023-05-17T00:42:36;9.10;;;1.30;;
49450;SDS011;35336;48.400;10.886;2023-05-17T00:42:52;5.63;;;1.37;;
49450;SDS011;35336;48.400;10.886;2023-05-17T00:43:07;5.10;;;1.50;;
49450;SDS011;35336;48.400;10.886;2023-05-17T00:43:22;4.13;;;1.33;;
49450;SDS011;35336;48.400;10.886;2023-05-17T00:43:38;5.37;;;1.43;;
49450;SDS011;35336;48.400;10.886;2023-05-17T00:43:53;6.47;;;1.35;;
49450;SDS011;35336;48.400;10.886;2023-05-17T00:44:09;12.00;;;1.75;;
49450;SDS011;35336;48.400;10.886;2023-05-17T00:44:24;12.53;;;2.43;;
49450;SDS011;35336;48.400;10.886;2023-05-17T00:44:39;7.80;;;1.97;;
49450;SDS011;35336;48.400;10.886;2023-05-17T00:44:55;7.90;;;1.43;;
49450;SDS011;35336;48.400;10.886;2023-05-17T00:45:10;7.63;;;1.83;;
49450;SDS011;35336;48.400;10.886;2023-05-17T00:45:26;8.50;;;2.10;;
49450;SDS011;35336;48.400;10.886;2023-05-17T00:45:41;6.72;;;1.63;;
49450;SDS011;35336;48.400;10.886;2023-05-17T00:45:56;5.00;;;1.33;;
49450;SDS011;35336;48.400;10.886;2023-05-17T00:46:12;6.33;;;1.27;;
49450;SDS011;35336;48.400;10.886;2023-05-17T00:46:27;6.63;;;1.35;;
49450;SDS011;35336;48.400;10.886;2023-05-17T00:46:42;6.87;;;1.50;;
49450;SDS011;35336;48.400;10.886;2023-05-17T00:46:58;6.97;;;1.67;;
49450;SDS011;35336;48.400;10.886;2023-05-17T00:47:13;6.10;;;1.80;;
49450;SDS011;35336;48.400;10.886;2023-05-17T00:47:28;6.73;;;1.60;;
49450;SDS011;35336;48.400;10.886;2023-05-17T00:47:44;6.03;;;1.60;;
49450;SDS011;35336;48.400;10.886;2023-05-17T00:47:59;6.88;;;1.48;;
49450;SDS011;35336;48.400;10.886;2023-05-17T00:48:14;8.53;;;1.33;;
49450;SDS011;35336;48.400;10.886;2023-05-17T00:48:30;6.20;;;1.35;;
49450;SDS011;35336;48.400;10.886;2023-05-17T00:48:46;4.93;;;1.40;;
49450;SDS011;35336;48.400;10.886;2023-05-17T00:49:01;5.53;;;1.30;;
49450;SDS011;35336;48.400;10.886;2023-05-17T00:49:17;8.77;;;1.43;;
49450;SDS011;35336;48.400;10.886;2023-05-17T00:49:32;8.63;;;1.38;;
49450;SDS011;35336;48.400;10.886;2023-05-17T00:49:47;7.03;;;1.50;;
49450;SDS011;35336;48.400;10.886;2023-05-17T00:50:03;7.03;;;1.40;;
49450;SDS011;35336;48.400;10.886;2023-05-17T00:50:19;8.48;;;1.20;;
49450;SDS011;35336;48.400;10.886;2023-05-17T00:50:35;10.27;;;1.30;;
49450;SDS011;35336;48.400;10.886;2023-05-17T00:50:51;6.93;;;1.30;;
49450;SDS011;35336;48.400;10.886;2023-05-17T00:51:07;4.28;;;1.10;;
49450;SDS011;35336;48.400;10.886;2023-05-17T00:51:22;5.27;;;1.20;;
49450;SDS011;35336;48.400;10.886;2023-05-17T00:51:38;8.17;;;1.33;;
49450;SDS011;35336;48.400;10.886;2023-05-17T00:51:53;8.60;;;1.60;;
49450;SDS011;35336;48.400;10.886;2023-05-17T00:52:09;4.97;;;1.42;;
49450;SDS011;35336;48.400;10.886;2023-05-17T00:52:24;6.47;;;1.57;;
49450;SDS011;35336;48.400;10.886;2023-05-17T00:52:40;7.90;;;1.65;;
49450;SDS011;35336;48.400;10.886;2023-05-17T00:52:56;7.03;;;1.58;;
49450;SDS011;35336;48.400;10.886;2023-05-17T00:53:11;8.47;;;1.80;;
49450;SDS011;35336;48.400;10.886;2023-05-17T00:53:27;7.47;;;1.48;;
49450;SDS011;35336;48.400;10.886;2023-05-17T00:53:44;5.70;;;1.15;;
49450;SDS011;35336;48.400;10.886;2023-05-17T00:53:59;6.90;;;1.30;;
49450;SDS011;35336;48.400;10.886;2023-05-17T00:54:15;6.40;;;1.23;;
49450;SDS011;35336;48.400;10.886;2023-05-17T00:54:30;6.00;;;1.30;;
49450;SDS011;35336;48.400;10.886;2023-05-17T00:54:46;5.85;;;1.70;;
49450;SDS011;35336;48.400;10.886;2023-05-17T00:55:02;5.97;;;1.55;;
49450;SDS011;35336;48.400;10.886;2023-05-17T00:55:17;4.93;;;1.13;;
49450;SDS011;35336;48.400;10.886;2023-05-17T00:55:33;5.15;;;1.15;;
49450;SDS011;35336;48.400;10.886;2023-05-17T00:55:48;4.37;;;1.10;;
49450;SDS011;35336;48.400;10.886;2023-05-17T00:56:04;3.63;;;1.10;;
49450;SDS011;35336;48.400;10.886;2023-05-17T00:56:20;4.68;;;1.23;;
49450;SDS011;35336;48.400;10.886;2023-05-17T00:56:35;6.97;;;1.80;;
49450;SDS011;35336;48.400;10.886;2023-05-17T00:56:52;5.70;;;1.48;;
49450;SDS011;35336;48.400;10.886;2023-05-17T00:57:08;4.60;;;1.20;;
49450;SDS011;35336;48.400;10.886;2023-05-17T00:57:24;5.93;;;1.27;;
49450;SDS011;35336;48.400;10.886;2023-05-17T00:57:39;8.13;;;1.33;;
49450;SDS011;35336;48.400;10.886;2023-05-17T00:57:54;10.60;;;1.47;;
49450;SDS011;35336;48.400;10.886;2023-05-17T00:58:10;9.63;;;1.33;;
49450;SDS011;35336;48.400;10.886;2023-05-17T00:58:26;8.27;;;1.38;;
49450;SDS011;35336;48.400;10.886;2023-05-17T00:58:42;10.15;;;1.40;;
49450;SDS011;35336;48.400;10.886;2023-05-17T00:58:57;7.40;;;1.23;;
49450;SDS011;35336;48.400;10.886;2023-05-17T00:59:13;8.00;;;1.23;;
49450;SDS011;35336;48.400;10.886;2023-05-17T00:59:29;6.32;;;1.25;;
49450;SDS011;35336;48.400;10.886;2023-05-17T00:59:45;7.13;;;1.43;;
49450;SDS011;35336;48.400;10.886;2023-05-17T01:00:01;9.63;;;1.42;;
49450;SDS011;35336;48.400;10.886;2023-05-17T01:00:17;8.05;;;1.20;;
49450;SDS011;35336;48.400;10.886;2023-05-17T01:00:32;5.57;;;1.48;;
49450;SDS011;35336;48.400;10.886;2023-05-17T01:00:48;5.73;;;1.47;;
49450;SDS011;35336;48.400;10.886;2023-05-17T01:01:04;5.20;;;1.25;;
49450;SDS011;35336;48.400;10.886;2023-05-17T01:01:19;4.85;;;1.35;;
49450;SDS011;35336;48.400;10.886;2023-05-17T01:01:35;5.67;;;1.23;;
49450;SDS011;35336;48.400;10.886;2023-05-17T01:01:54;4.22;;;1.20;;
49450;SDS011;35336;48.400;10.886;2023-05-17T01:02:10;4.70;;;1.08;;
49450;SDS011;35336;48.400;10.886;2023-05-17T01:02:26;6.55;;;1.40;;
49450;SDS011;35336;48.400;10.886;2023-05-17T01:02:41;6.20;;;1.20;;
49450;SDS011;35336;48.400;10.886;2023-05-17T01:02:56;6.03;;;1.20;;
49450;SDS011;35336;48.400;10.886;2023-05-17T01:03:12;5.03;;;1.20;;
49450;SDS011;35336;48.400;10.886;2023-05-17T01:03:27;4.37;;;1.17;;
49450;SDS011;35336;48.400;10.886;2023-05-17T01:03:42;8.07;;;1.27;;
49450;SDS011;35336;48.400;10.886;2023-05-17T01:03:58;7.57;;;1.33;;
49450;SDS011;35336;48.400;10.886;2023-05-17T01:04:14;4.20;;;1.27;;
49450;SDS011;35336;48.400;10.886;2023-05-17T01:04:29;4.87;;;1.20;;
49450;SDS011;35336;48.400;10.886;2023-05-17T01:04:45;6.45;;;1.27;;
49450;SDS011;35336;48.400;10.886;2023-05-17T01:05:01;7.78;;;1.58;;
49450;SDS011;35336;48.400;10.886;2023-05-17T01:05:17;7.53;;;1.50;;
49450;SDS011;35336;48.400;10.886;2023-05-17T01:05:32;6.85;;;1.55;;
49450;SDS011;35336;48.400;10.886;2023-05-17T01:05:48;5.03;;;1.60;;
49450;SDS011;35336;48.400;10.886;2023-05-17T01:06:05;5.47;;;1.58;;
49450;SDS011;35336;48.400;10.886;2023-05-17T01:06:20;7.38;;;1.50;;
49450;SDS011;35336;48.400;10.886;2023-05-17T01:06:36;6.13;;;1.20;;
49450;SDS011;35336;48.400;10.886;2023-05-17T01:06:51;4.68;;;1.30;;
49450;SDS011;35336;48.400;10.886;2023-05-17T01:07:07;5.37;;;1.40;;
49450;SDS011;35336;48.400;10.886;2023-05-17T01:07:22;6.20;;;1.40;;
49450;SDS011;35336;48.400;10.886;2023-05-17T01:07:37;6.78;;;1.50;;
49450;SDS011;35336;48.400;10.886;2023-05-17T01:07:53;5.33;;;1.50;;
49450;SDS011;35336;48.400;10.886;2023-05-17T01:08:08;5.87;;;1.60;;
49450;SDS011;35336;48.400;10.886;2023-05-17T01:08:23;6.80;;;1.60;;
49450;SDS011;35336;48.400;10.886;2023-05-17T01:08:39;7.00;;;1.17;;
49450;SDS011;35336;48.400;10.886;2023-05-17T01:08:54;7.43;;;1.20;;
49450;SDS011;35336;48.400;10.886;2023-05-17T01:09:09;5.82;;;1.20;;
49450;SDS011;35336;48.400;10.886;2023-05-17T01:09:25;4.50;;;1.13;;
49450;SDS011;35336;48.400;10.886;2023-05-17T01:09:40;5.95;;;1.35;;
49450;SDS011;35336;48.400;10.886;2023-05-17T01:09:56;8.53;;;1.60;;
49450;SDS011;35336;48.400;10.886;2023-05-17T01:10:12;6.97;;;1.27;;
49450;SDS011;35336;48.400;10.886;2023-05-17T01:10:45;4.15;;;1.00;;
49450;SDS011;35336;48.400;10.886;2023-05-17T01:13:14;5.35;;;0.98;;
49450;SDS011;35336;48.400;10.886;2023-05-17T01:14:40;5.47;;;1.17;;
49450;SDS011;35336;48.400;10.886;2023-05-17T01:15:13;5.90;;;1.17;;
49450;SDS011;35336;48.400;10.886;2023-05-17T01:15:31;6.15;;;1.00;;
49450;SDS011;35336;48.400;10.886;2023-05-17T01:15:52;4.70;;;0.95;;
49450;SDS011;35336;48.400;10.886;2023-05-17T01:16:24;4.82;;;1.20;;
49450;SDS011;35336;48.400;10.886;2023-05-17T01:16:47;7.40;;;1.30;;
49450;SDS011;35336;48.400;10.886;2023-05-17T01:17:15;3.95;;;1.05;;
49450;SDS011;35336;48.400;10.886;2023-05-17T01:19:44;6.50;;;1.35;;
49450;SDS011;35336;48.400;10.886;2023-05-17T01:20:13;4.25;;;1.70;;
49450;SDS011;35336;48.400;10.886;2023-05-17T01:20:32;5.43;;;1.50;;
49450;SDS011;35336;48.400;10.886;2023-05-17T01:20:51;3.20;;;1.17;;
49450;SDS011;35336;48.400;10.886;2023-05-17T01:21:11;6.88;;;1.25;;
49450;SDS011;35336;48.400;10.886;2023-05-17T01:22:25;4.88;;;1.10;;
49450;SDS011;35336;48.400;10.886;2023-05-17T01:23:54;5.45;;;1.27;;
49450;SDS011;35336;48.400;10.886;2023-05-17T01:24:39;6.93;;;1.00;;
49450;SDS011;35336;48.400;10.886;2023-05-17T01:25:49;7.57;;;1.33;;
49450;SDS011;35336;48.400;10.886;2023-05-17T01:26:17;7.45;;;1.13;;
49450;SDS011;35336;48.400;10.886;2023-05-17T01:26:35;5.38;;;0.90;;
49450;SDS011;35336;48.400;10.886;2023-05-17T01:26:53;5.70;;;1.00;;
49450;SDS011;35336;48.400;10.886;2023-05-17T01:27:08;5.35;;;1.33;;
49450;SDS011;35336;48.400;10.886;2023-05-17T01:27:25;6.63;;;1.40;;
49450;SDS011;35336;48.400;10.886;2023-05-17T01:27:42;6.07;;;1.15;;
49450;SDS011;35336;48.400;10.886;2023-05-17T01:28:01;6.50;;;1.17;;
49450;SDS011;35336;48.400;10.886;2023-05-17T01:28:19;5.40;;;0.90;;
49450;SDS011;35336;48.400;10.886;2023-05-17T01:28:38;4.30;;;1.00;;
49450;SDS011;35336;48.400;10.886;2023-05-17T01:28:55;3.47;;;1.05;;
49450;SDS011;35336;48.400;10.886;2023-05-17T01:29:11;5.45;;;1.33;;
49450;SDS011;35336;48.400;10.886;2023-05-17T01:29:30;4.70;;;1.10;;
49450;SDS011;35336;48.400;10.886;2023-05-17T01:29:47;6.38;;;1.10;;
49450;SDS011;35336;48.400;10.886;2023-05-17T01:30:04;6.32;;;1.20;;
49450;SDS011;35336;48.400;10.886;2023-05-17T01:30:24;6.35;;;1.00;;
49450;SDS011;35336;48.400;10.886;2023-05-17T01:30:40;6.55;;;1.00;;
49450;SDS011;35336;48.400;10.886;2023-05-17T01:30:58;5.45;;;1.17;;
49450;SDS011;35336;48.400;10.886;2023-05-17T01:31:16;7.22;;;1.20;;
49450;SDS011;35336;48.400;10.886;2023-05-17T01:31:32;8.88;;;1.40;;
49450;SDS011;35336;48.400;10.886;2023-05-17T01:31:50;6.53;;;1.50;;
49450;SDS011;35336;48.400;10.886;2023-05-17T01:32:06;6.15;;;1.52;;
49450;SDS011;35336;48.400;10.886;2023-05-17T01:32:23;15.70;;;1.45;;
49450;SDS011;35336;48.400;10.886;2023-05-17T01:32:42;12.85;;;1.15;;
49450;SDS011;35336;48.400;10.886;2023-05-17T01:32:57;3.60;;;1.00;;
49450;SDS011;35336;48.400;10.886;2023-05-17T01:33:13;5.13;;;1.27;;
49450;SDS011;35336;48.400;10.886;2023-05-17T01:33:29;5.57;;;1.17;;
49450;SDS011;35336;48.400;10.886;2023-05-17T01:33:45;6.35;;;1.00;;
49450;SDS011;35336;48.400;10.886;2023-05-17T01:34:07;6.15;;;1.25;;
49450;SDS011;35336;48.400;10.886;2023-05-17T01:34:24;4.15;;;1.02;;
49450;SDS011;35336;48.400;10.886;2023-05-17T01:34:41;3.58;;;1.00;;
49450;SDS011;35336;48.400;10.886;2023-05-17T01:34:56;5.00;;;0.90;;
49450;SDS011;35336;48.400;10.886;2023-05-17T01:35:12;9.13;;;0.93;;
49450;SDS011;35336;48.400;10.886;2023-05-17T01:35:27;8.70;;;1.20;;
49450;SDS011;35336;48.400;10.886;2023-05-17T01:35:42;5.83;;;1.40;;
49450;SDS011;35336;48.400;10.886;2023-05-17T01:35:57;5.38;;;1.20;;
49450;SDS011;35336;48.400;10.886;2023-05-17T01:36:13;4.80;;;0.90;;
49450;SDS011;35336;48.400;10.886;2023-05-17T01:36:28;4.87;;;1.00;;
49450;SDS011;35336;48.400;10.886;2023-05-17T01:36:43;5.82;;;1.15;;
49450;SDS011;35336;48.400;10.886;2023-05-17T01:36:59;6.83;;;1.30;;
49450;SDS011;35336;48.400;10.886;2023-05-17T01:37:14;5.00;;;1.03;;
49450;SDS011;35336;48.400;10.886;2023-05-17T01:37:29;3.90;;;0.93;;
49450;SDS011;35336;48.400;10.886;2023-05-17T01:37:45;4.10;;;0.90;;
49450;SDS011;35336;48.400;10.886;2023-05-17T01:38:00;5.47;;;1.27;;
49450;SDS011;35336;48.400;10.886;2023-05-17T01:38:15;4.70;;;1.27;;
49450;SDS011;35336;48.400;10.886;2023-05-17T01:38:31;3.20;;;1.00;;
49450;SDS011;35336;48.400;10.886;2023-05-17T01:38:46;3.63;;;0.80;;
49450;SDS011;35336;48.400;10.886;2023-05-17T01:39:01;4.77;;;1.20;;
49450;SDS011;35336;48.400;10.886;2023-05-17T01:39:17;4.95;;;1.35;;
49450;SDS011;35336;48.400;10.886;2023-05-17T01:39:32;4.45;;;1.10;;
49450;SDS011;35336;48.400;10.886;2023-05-17T01:39:48;5.87;;;1.00;;
49450;SDS011;35336;48.400;10.886;2023-05-17T01:40:04;5.60;;;1.00;;
49450;SDS011;35336;48.400;10.886;2023-05-17T01:40:21;6.90;;;1.38;;
49450;SDS011;35336;48.400;10.886;2023-05-17T01:40:44;7.15;;;1.33;;
49450;SDS011;35336;48.400;10.886;2023-05-17T01:41:39;5.68;;;1.25;;
49450;SDS011;35336;48.400;10.886;2023-05-17T01:41:56;5.75;;;1.23;;
49450;SDS011;35336;48.400;10.886;2023-05-17T01:42:22;4.75;;;0.82;;
49450;SDS011;35336;48.400;10.886;2023-05-17T01:42:43;3.25;;;0.90;;
49450;SDS011;35336;48.400;10.886;2023-05-17T01:43:03;5.25;;;0.93;;
49450;SDS011;35336;48.400;10.886;2023-05-17T01:43:25;5.20;;;1.70;;
49450;SDS011;35336;48.400;10.886;2023-05-17T01:44:24;5.50;;;0.88;;
49450;SDS011;35336;48.400;10.886;2023-05-17T01:45:13;4.90;;;1.10;;
49450;SDS011;35336;48.400;10.886;2023-05-17T01:45:46;7.18;;;1.17;;
49450;SDS011;35336;48.400;10.886;2023-05-17T01:46:11;5.00;;;1.25;;
49450;SDS011;35336;48.400;10.886;2023-05-17T01:46:46;6.45;;;1.80;;
49450;SDS011;35336;48.400;10.886;2023-05-17T01:47:12;6.72;;;1.30;;